Latest Weather Observations for Lochington

IDQ60801

Issued at 1:32 pm EST Friday 9 December 2016 (issued every 30 minutes, with the page automatically refreshed every 10 minutes)

About weather observations | Map of weather stations | Latest weather observations for QLD | Other Formats
Station Details ID: 035139 Name: LOCHINGTON Lat: -23.94 Lon: 147.53 Height: 267.19 m
Data from the previous 72 hours. | See also: Recent months at Lochington
Date/Time
EST
Temp
°C
App
Temp
°C
Dew
Point
°C
Rel
Hum
%
Delta-T
°C
Wind Press
QNH
hPa
Press
MSL
hPa
Rain since
9am
mm
Dir  Spd
km/h
Gust
km/h
Spd
kts
Gust
kts
09/01:00pm 24.4 27.7 21.9 86 1.7 SSE 7 11 4 6 1012.9 1011.1 0.4
09/12:30pm 24.8 27.0 20.3 76 3.0 SSW 9 17 5 9 1013.2 1011.4 0.0
09/12:00pm 26.6 28.7 20.2 68 4.2 SSW 9 15 5 8 1013.2 1011.4 0.0
09/11:30am 26.8 29.5 20.2 67 4.4 SW 6 13 3 7 1013.3 1011.5 0.0
09/11:00am 27.7 30.2 19.8 62 5.2 SSW 6 9 3 5 1013.4 1011.6 0.0
09/10:30am 27.8 30.7 19.8 61 5.3 SSE 4 9 2 5 1013.3 1011.5 0.0
09/10:00am 27.3 29.4 18.9 60 5.5 ESE 6 9 3 5 1013.8 1012.0 0.0
09/09:30am 27.6 29.3 18.6 58 5.8 SE 7 11 4 6 1013.7 1011.9 0.0
09/09:00am 26.7 28.9 19.1 63 4.9 ENE 6 13 3 7 1013.7 1011.9 14.8
09/08:30am 26.1 27.6 19.0 65 4.6 E 9 13 5 7 1013.4 1011.6 14.8
09/08:00am 25.7 28.1 20.0 71 3.7 ENE 7 11 4 6 1013.5 1011.7 14.8
09/07:30am 24.8 27.4 20.5 77 2.8 NE 7 11 4 6 1013.2 1011.4 14.8
09/07:00am 23.8 26.8 20.9 84 1.9 NNE 6 9 3 5 1013.1 1011.3 14.8
09/06:30am 23.1 26.5 21.0 88 1.4 NE 4 6 2 3 1013.1 1011.3 14.8
09/06:00am 22.9 26.5 21.2 90 1.1 ENE 4 6 2 3 1012.8 1011.0 14.8
09/05:30am 22.8 25.5 20.7 88 1.4 E 7 11 4 6 1012.4 1010.5 14.8
09/05:00am 22.9 27.1 21.0 89 1.3 CALM 0 0 0 0 1012.3 1010.4 14.8
09/04:30am 22.7 25.6 21.0 90 1.1 ESE 7 13 4 7 1011.7 1009.9 14.8
09/04:00am 22.8 25.6 20.9 89 1.3 ESE 7 13 4 7 1011.8 1010.0 14.8
09/03:30am 22.8 24.7 20.5 87 1.5 ESE 11 17 6 9 1011.4 1009.6 14.8
09/03:00am 23.2 27.3 21.5 90 1.1 S 2 4 1 2 1011.9 1010.1 14.8
09/02:30am 23.0 25.9 21.1 89 1.3 SSE 7 11 4 6 1011.7 1009.9 14.8
09/02:00am 23.0 26.1 21.1 89 1.3 SW 6 7 3 4 1011.8 1010.0 14.6
09/01:30am 23.1 26.8 21.4 90 1.1 SW 4 6 2 3 1012.0 1010.2 14.2
09/01:00am 22.8 25.5 20.7 88 1.4 ENE 7 13 4 7 1011.5 1009.7 14.0
09/12:30am 22.5 24.3 20.4 88 1.4 SE 11 15 6 8 1011.2 1009.4 14.0
09/12:00am 23.4 25.5 19.3 78 2.6 WNW 7 20 4 11 1012.4 1010.5 10.4
 
Date/Time
EST
Temp
°C
App
Temp
°C
Dew
Point
°C
Rel
Hum
%
Delta-T
°C
Wind Press
QNH
hPa
Press
MSL
hPa
Rain since
9am
mm
Dir  Spd
km/h
Gust
km/h
Spd
kts
Gust
kts
08/11:30pm 27.2 28.8 17.9 56 5.9 WNW 6 11 3 6 1011.5 1009.7 0.4
08/11:00pm 26.6 28.1 17.7 58 5.7 E 6 7 3 4 1010.6 1008.8 0.4
08/10:30pm 26.8 28.3 18.1 59 5.6 ESE 7 9 4 5 1010.4 1008.6 0.4
08/10:00pm 27.3 28.4 18.0 56 6.0 ESE 9 15 5 8 1010.5 1008.7 0.4
08/09:30pm 27.5 29.0 18.8 59 5.6 NNE 9 24 5 13 1010.5 1008.7 0.4
08/09:00pm 28.1 29.8 18.5 56 6.2 S 7 11 4 6 1009.5 1007.7 0.4
08/08:30pm 26.7 28.2 18.8 62 5.1 E 9 13 5 7 1008.8 1006.9 0.4
08/08:00pm 28.4 30.2 18.8 56 6.3 SE 7 13 4 7 1008.6 1006.7 0.4
08/07:30pm 27.6 29.9 19.9 63 5.1 ESE 7 13 4 7 1008.5 1006.6 0.4
08/07:00pm 28.1 30.3 19.3 58 5.8 ESE 6 9 3 5 1008.4 1006.5 0.4
08/06:30pm 29.7 25.7 16.1 43 8.5 NW 32 57 17 31 1006.9 1005.1 0.0
08/06:26pm 31.9 29.9 15.0 36 10.5 NNW 19 54 10 29 1007.2 1005.4 0.0
08/06:25pm 32.9 31.3 14.0 32 11.6 NNW 15 44 8 24 1007.3 1005.5 0.0
08/06:00pm 36.5 35.4 10.6 21 15.4 E 7 15 4 8 1006.5 1004.7 0.0
08/05:30pm 37.4 35.9 10.7 20 15.9 ENE 9 17 5 9 1006.3 1004.5 0.0
08/05:00pm 38.0 36.5 10.4 19 16.5 NNE 9 17 5 9 1006.2 1004.4 0.0
08/04:30pm 37.9 37.1 11.1 20 16.1 S 6 17 3 9 1006.3 1004.5 0.0
08/04:00pm 37.6 35.9 10.0 19 16.3 E 9 19 5 10 1006.5 1004.7 0.0
08/03:30pm 37.7 36.7 10.9 20 16.1 NNW 7 20 4 11 1007.0 1005.2 0.0
08/03:00pm 37.0 35.7 11.1 21 15.5 NNW 9 22 5 12 1007.5 1005.7 0.0
08/02:30pm 37.6 35.8 10.8 20 16.0 NNE 11 20 6 11 1007.9 1006.1 0.0
08/02:00pm 37.3 36.0 11.3 21 15.7 NE 9 20 5 11 1008.4 1006.5 0.0
08/01:30pm 36.8 37.3 12.9 24 14.7 W 2 15 1 8 1008.9 1007.0 0.0
08/01:00pm 35.9 33.1 11.5 23 14.7 N 17 24 9 13 1009.2 1007.4 0.0
08/12:30pm 36.1 35.0 13.0 25 14.2 NNE 11 22 6 12 1009.6 1007.8 0.0
08/12:00pm 35.1 33.9 12.7 26 13.7 N 11 20 6 11 1010.3 1008.5 0.0
08/11:30am 33.8 32.2 12.7 27 12.8 NE 13 28 7 15 1010.8 1009.0 0.0
08/11:00am 32.6 32.3 13.3 31 11.8 NE 7 19 4 10 1011.4 1009.6 0.0
08/10:30am 33.4 32.4 14.5 32 11.7 NE 13 24 7 13 1011.7 1009.9 0.0
08/10:00am 31.8 32.0 15.7 37 10.1 NNE 9 17 5 9 1012.4 1010.5 0.0
08/09:30am 30.4 29.5 14.9 39 9.6 NNE 13 22 7 12 1012.9 1011.1 0.0
08/09:00am 29.7 29.6 15.0 40 9.1 NNE 9 15 5 8 1013.2 1011.4 0.0
08/08:30am 28.9 29.1 16.8 48 7.7 NNE 11 17 6 9 1013.0 1011.2 0.0
08/08:00am 28.0 27.9 16.9 51 7.0 NNE 13 17 7 9 1013.0 1011.2 0.0
08/07:30am 26.7 27.0 17.8 58 5.7 NNE 13 17 7 9 1012.9 1011.1 0.0
08/07:00am 25.9 26.5 17.8 61 5.2 NE 11 17 6 9 1012.8 1011.0 0.0
08/06:30am 25.2 25.8 17.7 63 4.7 NE 11 17 6 9 1012.5 1010.6 0.0
08/06:00am 24.1 24.8 17.1 65 4.4 NE 9 15 5 8 1012.0 1010.2 0.0
08/05:30am 23.6 24.1 16.6 65 4.3 ENE 9 13 5 7 1011.8 1010.0 0.0
08/05:00am 23.5 24.5 16.8 66 4.2 ENE 7 11 4 6 1011.7 1009.9 0.0
08/04:30am 24.1 25.2 17.1 65 4.4 ENE 7 11 4 6 1011.6 1009.8 0.0
08/04:00am 24.4 25.5 17.1 63 4.6 ENE 7 11 4 6 1011.3 1009.5 0.0
08/03:30am 24.8 26.0 17.3 63 4.7 ENE 7 11 4 6 1011.4 1009.6 0.0
08/03:00am 25.5 25.7 17.7 62 4.9 NE 13 20 7 11 1011.6 1009.8 0.0
08/02:30am 26.2 26.2 17.3 58 5.6 ENE 13 19 7 10 1011.4 1009.6 0.0
08/02:00am 26.7 27.7 16.9 55 6.2 ENE 7 13 4 7 1011.6 1009.8 0.0
08/01:30am 27.1 28.2 17.0 54 6.4 ENE 7 13 4 7 1011.7 1009.9 0.0
08/01:00am 28.0 26.7 16.9 51 7.0 ENE 19 28 10 15 1011.5 1009.7 0.0
08/12:30am 28.9 27.3 16.1 46 8.0 ENE 19 28 10 15 1011.6 1009.8 0.0
08/12:00am 28.8 28.9 16.4 47 7.8 ENE 11 15 6 8 1011.9 1010.1 0.0
 
Date/Time
EST
Temp
°C
App
Temp
°C
Dew
Point
°C
Rel
Hum
%
Delta-T
°C
Wind Press
QNH
hPa
Press
MSL
hPa
Rain since
9am
mm
Dir  Spd
km/h
Gust
km/h
Spd
kts
Gust
kts
07/11:30pm 28.6 28.3 16.5 48 7.6 E 13 20 7 11 1011.8 1010.0 0.0
07/11:00pm 28.7 29.7 16.9 48 7.5 ESE 7 13 4 7 1012.0 1010.2 0.0
07/10:30pm 28.6 30.0 16.5 48 7.6 S 4 7 2 4 1012.0 1010.2 0.0
07/10:00pm 29.0 30.1 16.5 46 7.9 S 6 13 3 7 1012.0 1010.2 0.0
07/09:30pm 29.6 29.7 16.4 45 8.3 SSW 11 19 6 10 1011.9 1010.1 0.0
07/09:00pm 30.5 30.1 16.1 41 9.1 S 13 24 7 13 1011.5 1009.7 0.0
07/08:30pm 32.0 31.2 15.1 36 10.5 S 13 24 7 13 1011.0 1009.2 0.0
07/08:00pm 32.9 32.1 13.0 30 12.1 ENE 9 11 5 6 1010.4 1008.6 0.0
07/07:30pm 33.4 32.6 12.9 28 12.4 ENE 9 13 5 7 1010.1 1008.3 0.0
07/07:00pm 34.3 34.0 13.2 28 12.9 ENE 7 11 4 6 1010.0 1008.2 0.0
07/06:30pm 35.5 35.1 13.1 26 13.7 NE 7 11 4 6 1009.7 1007.9 0.0
07/06:00pm 36.6 35.4 12.8 24 14.6 NNE 11 17 6 9 1009.4 1007.6 0.0
07/05:30pm 37.3 36.3 13.3 23 14.9 NNE 11 20 6 11 1009.0 1007.1 0.0
07/05:00pm 37.7 36.2 13.0 23 15.3 NE 13 20 7 11 1008.7 1006.8 0.0
07/04:30pm 38.4 36.8 12.9 22 15.8 NE 13 24 7 13 1008.7 1006.8 0.0
07/04:00pm 38.4 38.2 12.9 22 15.8 NE 6 17 3 9 1009.0 1007.1 0.0
07/03:30pm 38.4 37.4 12.2 21 16.0 NE 9 22 5 12 1009.3 1007.5 0.0
07/03:00pm 38.0 37.1 12.6 22 15.6 NE 9 17 5 9 1010.0 1008.2 0.0
07/02:30pm 37.4 35.8 12.8 23 15.1 NNE 13 22 7 12 1010.4 1008.6 0.0
07/02:00pm 37.2 36.7 12.6 23 15.1 ENE 7 13 4 7 1010.7 1008.9 0.0
07/01:30pm 38.1 37.8 13.3 22 15.4 NNW 7 15 4 8 1011.2 1009.4 0.0
07/01:00pm 36.9 36.7 13.0 24 14.7 ENE 6 11 3 6 1011.5 1009.7 0.0
07/12:30pm 35.6 35.4 13.1 25 13.8 NNW 6 13 3 7 1012.0 1010.2 0.0
07/12:00pm 35.4 34.4 12.4 25 14.0 NNE 9 17 5 9 1012.5 1010.6 0.0
07/11:30am 35.1 33.5 11.5 24 14.1 NNE 11 20 6 11 1013.0 1011.2 0.0
07/11:00am 34.1 33.5 12.4 26 13.1 NE 7 17 4 9 1013.6 1011.8 0.0
07/10:30am 33.2 32.4 12.8 29 12.3 NE 9 15 5 8 1014.1 1012.3 0.0
07/10:00am 31.8 31.3 12.6 31 11.5 NNE 7 20 4 11 1014.5 1012.7 0.0
07/09:30am 31.0 29.3 12.4 32 11.1 ENE 13 20 7 11 1014.7 1012.9 0.0
07/09:00am 29.9 29.7 14.8 39 9.3 NE 9 19 5 10 1014.7 1012.9 0.0
07/08:30am 29.1 29.1 15.2 42 8.6 NNE 9 19 5 10 1015.1 1013.3 0.0
07/08:00am 27.7 28.1 16.3 49 7.1 NNE 9 17 5 9 1015.1 1013.3 0.0
07/07:30am 26.7 26.8 16.6 54 6.3 NE 11 20 6 11 1014.9 1013.1 0.0
07/07:00am 25.8 25.5 16.4 56 5.8 NNE 13 20 7 11 1014.3 1012.5 0.0
07/06:30am 24.9 25.2 16.1 58 5.4 NE 9 13 5 7 1014.1 1012.3 0.0
07/06:00am 24.1 24.4 16.1 61 4.9 NE 9 15 5 8 1013.8 1012.0 0.0
07/05:30am 23.3 23.4 15.6 62 4.7 ENE 9 13 5 7 1013.3 1011.5 0.0
07/05:00am 23.6 23.4 14.6 57 5.4 NE 9 15 5 8 1013.0 1011.2 0.0
07/04:30am 24.0 22.8 14.1 54 5.9 ENE 13 20 7 11 1012.6 1010.8 0.0
07/04:00am 24.5 23.2 13.7 51 6.4 ENE 13 17 7 9 1012.8 1011.0 0.0
07/03:30am 24.9 23.4 13.1 48 6.9 E 13 17 7 9 1012.5 1010.6 0.0
07/03:00am 25.5 24.5 12.4 44 7.6 ESE 9 15 5 8 1012.5 1010.6 0.0
07/02:30am 24.8 23.9 12.7 47 7.1 ESE 9 15 5 8 1011.6 1009.8 0.0
07/02:00am 25.1 24.4 13.3 48 7.0 ENE 9 13 5 7 1010.3 1008.5 0.0
07/01:30am 25.6 25.1 13.8 48 7.0 ENE 9 13 5 7 1010.5 1008.7 0.0
07/01:00am 26.0 25.5 13.8 47 7.3 ENE 9 13 5 7 1010.9 1009.1 0.0
07/12:30am 26.6 25.7 13.7 45 7.7 ENE 11 15 6 8 1011.0 1009.2 0.0
07/12:00am 27.1 26.4 13.1 42 8.3 E 9 11 5 6 1011.3 1009.5 0.0
 
Date/Time
EST
Temp
°C
App
Temp
°C
Dew
Point
°C
Rel
Hum
%
Delta-T
°C
Wind Press
QNH
hPa
Press
MSL
hPa
Rain since
9am
mm
Dir  Spd
km/h
Gust
km/h
Spd
kts
Gust
kts
06/11:30pm 28.5 27.2 12.4 37 9.5 NE 11 15 6 8 1011.3 1009.5 0.0
06/11:00pm 29.5 28.5 13.3 37 9.7 NNE 11 19 6 10 1011.4 1009.6 0.0
06/10:30pm 30.4 29.1 13.7 36 10.1 NE 13 19 7 10 1011.5 1009.7 0.0
06/10:00pm 31.3 29.5 14.4 35 10.4 NE 17 28 9 15 1011.4 1009.6 0.0
06/09:30pm 31.3 31.3 15.3 38 10.0 NE 9 15 5 8 1011.4 1009.6 0.0
06/09:00pm 31.7 31.7 15.2 36 10.3 ENE 9 13 5 7 1011.1 1009.3 0.0
06/08:30pm 32.3 32.7 15.3 35 10.6 ENE 7 9 4 5 1010.7 1008.9 0.0
06/08:00pm 33.1 33.4 15.1 33 11.3 ENE 7 9 4 5 1010.5 1008.7 0.0
06/07:30pm 33.3 33.6 14.4 32 11.7 ENE 6 9 3 5 1010.2 1008.4 0.0
06/07:00pm 34.7 33.7 14.6 30 12.6 NE 13 17 7 9 1010.0 1008.2 0.0
06/06:30pm 36.0 34.1 14.1 27 13.6 NE 17 24 9 13 1009.9 1008.1 0.0
06/06:00pm 36.8 34.9 14.1 25 14.2 NE 17 26 9 14 1009.7 1007.9 0.0
06/05:30pm 37.8 34.8 13.8 24 15.0 NE 22 30 12 16 1009.5 1007.7 0.0
06/05:00pm 38.8 37.0 13.2 21 15.9 ENE 15 24 8 13 1009.3 1007.5 0.0
06/04:30pm 38.9 37.2 12.6 21 16.2 NNE 13 20 7 11 1009.3 1007.5 0.0
06/04:00pm 38.8 38.7 13.2 21 15.9 NE 6 26 3 14 1009.8 1008.0 0.0
06/03:30pm 38.5 37.5 12.3 21 16.1 ENE 9 17 5 9 1010.1 1008.3 0.0
06/03:00pm 38.7 37.6 13.2 22 15.9 NE 11 19 6 10 1010.7 1008.9 0.0
06/02:30pm 38.2 36.6 12.7 21 15.7 NNE 13 20 7 11 1011.1 1009.3 0.0
06/02:00pm 38.6 37.5 13.1 22 15.8 NNE 11 22 6 12 1011.5 1009.7 0.0

Other Formats:

Comma delimited format used in spreadsheet applications
http://www.bom.gov.au/fwo/IDQ60801/IDQ60801.94399.axf

JavaScript Object Notation format (JSON) in row-major order
http://www.bom.gov.au/fwo/IDQ60801/IDQ60801.94399.json